メインページ
METAR-TAF:

METAR-TAF

空港 :

プルコヴォ空港

サンクトペテルブルク, ロシア

緯度: 59-58N, 経度: 030-18E, 海抜: 4m

現時点の気象観測

当レポートは30分前の07:00(UTC)に作成
西の風 14kt、南西から西/北西の間で変化する
気温 4°C
湿度 75%
気圧 1004 hPa
視程10km以上
1,500メートル以下は雲なし、積乱雲なし

METAR: ULLI 240700Z 27007MPS 230V290 CAVOK 04/M00 Q1004 R88/290050 NOSIG

時間: 10:30 (07:30 UTC)

予報

当レポートは2時間29分前の05:01(UTC)に作成
予報は24日の 06時(UTC)から 25日の 06時(UTC)まで有効
西/南西の風 12kt、最大23ktの突風を伴う
視程10km以上
高度1500ftの千切れ雲あり
24日の 08時(UTC)から 24日の 18時(UTC)まで一時的に
西の風 17kt、最大29ktの突風を伴う
視程: 4000m
高度1100ftの千切れ雲あり
高度2000ftの千切れ雲あり, 積乱雲.
弱いにわか雨
24日の 20時(UTC)から 24日の 22時(UTC)まで徐々に
西/南西の風 6kt
24日の 22時(UTC)から 25日の 05時(UTC)まで一時的に
視程: 3100m
小雨, 靄

TAF: ULLI 240501Z 2406/2506 25006G12MPS 9999 BKN015 TEMPO 2408/2418 27009G15MPS 4000 -SHRA BKN011 BKN020CB BECMG 2420/2422 24003MPS TEMPO 2422/2505 3100 -RA BR

4,000以上の空港の気象観測と天気予報(METAR報とTAF報)

利用可能な観測所は地図上に黄色い丸と赤い丸で示す。

丸の上にカーソルを重ねると観測所名を参照できる。

次にクリックすると気象観測と天気予報を参照できる。

マップの切り替え:黒色「×」印の緑ボタンをクリックして拡大、「-」印の緑ボタンをクリックして縮小、緑色の三角印をクリックして隣りの地図に切り替え


METAR-TAF: